New Horizon — WKWB — position and weather

sailwx.info

Track history (hours):
 
Tides and Currents Weather Stations Pressure Air Temp Water Temp Dewpoint Dewpoint Depression Visibility Wind Speed Wind Dir Waves Ship Positions

Oceanographic research ship New Horizon (USA)

Detailed information on ship capabilities available from University of Delaware's Ocean Information Center.

Owner: Bold Horizon, LLC., Annapolis, MD. More information available from US FCC via Universal Licensing System and Coast Guard Vessel Documentation Center.

Last reported at 2019-Nov-12 21:52 UTC. Time now 2019-Dec-11 11:49 UTC.
Position N 32°42' W 117°09'.
Warning: this ship's position is 28 days out of date.

Type: Other ship. MMSI: 303273000.

Date/timePositionNaut miles runAvg speedWind from/ knotsBaromVisibWave heightAir tempDewpointWater temp
2019-Nov-12 21:52N 32°42' W 117°09'  
2019-Nov-09 16:30N 32°36' W 117°26'10 9.9
2019-Nov-09 15:30N 32°34' W 117°38'49 9.9
2019-Nov-09 10:30N 32°25' W 118°35'510.1
2019-Nov-09 10:00N 32°25' W 118°41'46 9.9
2019-Nov-09 05:20N 32°17' W 119°35'18 9.8
2019-Nov-09 03:30N 32°14' W 119°56'15 2.2
2019-Nov-08 20:47N 32°12' W 120°13'0 0.3
2019-Nov-08 20:30N 32°12' W 120°13'2 0.5
2019-Nov-08 17:03N 32°14' W 120°12'2 0.3
2019-Nov-08 10:52N 32°12' W 120°10'0 0.2
2019-Nov-08 09:11N 32°12' W 120°10'0 0.4
2019-Nov-08 08:43N 32°12' W 120°10'0 0.3
2019-Nov-08 08:21N 32°12' W 120°10'0 0.4
2019-Nov-08 06:59N 32°12' W 120°09'0 0.0
2019-Nov-07 23:30N 32°12' W 120°10'0 0.3
2019-Nov-07 22:49N 32°12' W 120°10'0 0.1
2019-Nov-07 21:29N 32°12' W 120°09'0 0.0
2019-Nov-07 15:30N 32°12' W 120°09'0 0.0
2019-Nov-07 14:30N 32°12' W 120°09'0 0.0
2019-Nov-07 12:00N 32°12' W 120°09'0 0.0
2019-Nov-07 11:00N 32°12' W 120°09'0 0.0
2019-Nov-07 07:30N 32°12' W 120°09'1 0.3
2019-Nov-07 03:30N 32°13' W 120°09'0 0.7
2019-Nov-07 02:59N 32°13' W 120°08'1 1.4
2019-Nov-07 02:26N 32°12' W 120°08'2 0.4
2019-Nov-06 21:00N 32°13' W 120°10'0 0.0
2019-Nov-06 15:30N 32°13' W 120°10'1 1.9
2019-Nov-06 15:00N 32°12' W 120°10'1 1.1
2019-Nov-06 14:30N 32°12' W 120°09'0 0.3
2019-Nov-06 14:00N 32°12' W 120°09'0 0.2
2019-Nov-06 13:30N 32°12' W 120°09'1 0.2
2019-Nov-06 08:25N 32°12' W 120°10'1 0.3
2019-Nov-06 06:30N 32°12' W 120°09'2 1.3
2019-Nov-06 05:01N 32°10' W 120°08'1 0.8
2019-Nov-06 04:00N 32°11' W 120°09'1 0.3
2019-Nov-06 01:55N 32°12' W 120°09'3 0.8
2019-Nov-05 22:30N 32°13' W 120°12'1 0.2
2019-Nov-05 18:30N 32°13' W 120°10'1 2.0
2019-Nov-05 17:54N 32°14' W 120°12'0 1.2
2019-Nov-05 17:30N 32°13' W 120°12'3 1.4
2019-Nov-05 15:00N 32°11' W 120°09'1 0.3
2019-Nov-05 12:55N 32°12' W 120°09'0 0.0
2019-Nov-05 11:26N 32°12' W 120°09'0 0.1
2019-Nov-05 11:00N 32°12' W 120°09'0 0.0
2019-Nov-05 08:26N 32°12' W 120°09'0 0.0
2019-Nov-05 06:00N 32°12' W 120°09'0 0.0
2019-Nov-05 03:30N 32°12' W 120°09'0 0.1
2019-Nov-05 00:30N 32°12' W 120°09'0 0.0
2019-Nov-05 00:00N 32°12' W 120°09'0 0.3
2019-Nov-04 23:00N 32°12' W 120°10'0 0.1
2019-Nov-04 19:30N 32°12' W 120°10'1 0.1
2019-Nov-04 10:00N 32°11' W 120°10'1 0.3
2019-Nov-04 05:26N 32°11' W 120°08'0 0.3
2019-Nov-04 04:53N 32°11' W 120°08'1 0.7
2019-Nov-04 02:57N 32°12' W 120°09'1 0.4
2019-Nov-04 00:54N 32°13' W 120°10'1 1.1
2019-Nov-03 23:58N 32°12' W 120°09'1 0.6
2019-Nov-03 21:20N 32°11' W 120°09'1 1.7
2019-Nov-03 21:00N 32°11' W 120°09'0 0.1
2019-Nov-03 17:00N 32°11' W 120°09'2 1.1
2019-Nov-03 15:00N 32°11' W 120°07'1 0.6
2019-Nov-03 14:12N 32°11' W 120°07'1 0.8
2019-Nov-03 13:30N 32°11' W 120°08'2 0.5
2019-Nov-03 10:00N 32°12' W 120°10'0 0.1
2019-Nov-03 07:41N 32°12' W 120°10'0 0.3
2019-Nov-03 06:30N 32°12' W 120°10'1 1.7
2019-Nov-03 05:48N 32°11' W 120°09'1 0.2
2019-Nov-03 01:29N 32°12' W 120°08'1 0.2
2019-Nov-02 22:00N 32°12' W 120°09'  
Track history (hours):
 
Tides and Currents Weather Stations Pressure Air Temp Water Temp Dewpoint Dewpoint Depression Visibility Wind Speed Wind Dir Waves Ship Positions

Oceanographic research ship New Horizon (USA)

Detailed information on ship capabilities available from University of Delaware's Ocean Information Center.

Owner: Bold Horizon, LLC., Annapolis, MD. More information available from US FCC via Universal Licensing System and Coast Guard Vessel Documentation Center.

Last reported at 2019-Nov-12 21:52 UTC. Time now 2019-Dec-11 11:49 UTC.
Position N 32°42' W 117°09'.
Warning: this ship's position is 28 days out of date.

Type: Other ship. MMSI: 303273000.

Date/timePositionNaut miles runAvg speedWind from/ knotsBaromVisibWave heightAir tempDewpointWater temp
2019-Nov-12 21:52N 32°42' W 117°09'  
2019-Nov-09 16:30N 32°36' W 117°26'10 9.9
2019-Nov-09 15:30N 32°34' W 117°38'49 9.9
2019-Nov-09 10:30N 32°25' W 118°35'510.1
2019-Nov-09 10:00N 32°25' W 118°41'46 9.9
2019-Nov-09 05:20N 32°17' W 119°35'18 9.8
2019-Nov-09 03:30N 32°14' W 119°56'15 2.2
2019-Nov-08 20:47N 32°12' W 120°13'0 0.3
2019-Nov-08 20:30N 32°12' W 120°13'2 0.5
2019-Nov-08 17:03N 32°14' W 120°12'2 0.3
2019-Nov-08 10:52N 32°12' W 120°10'0 0.2
2019-Nov-08 09:11N 32°12' W 120°10'0 0.4
2019-Nov-08 08:43N 32°12' W 120°10'0 0.3
2019-Nov-08 08:21N 32°12' W 120°10'0 0.4
2019-Nov-08 06:59N 32°12' W 120°09'0 0.0
2019-Nov-07 23:30N 32°12' W 120°10'0 0.3
2019-Nov-07 22:49N 32°12' W 120°10'0 0.1
2019-Nov-07 21:29N 32°12' W 120°09'0 0.0
2019-Nov-07 15:30N 32°12' W 120°09'0 0.0
2019-Nov-07 14:30N 32°12' W 120°09'0 0.0
2019-Nov-07 12:00N 32°12' W 120°09'0 0.0
2019-Nov-07 11:00N 32°12' W 120°09'0 0.0
2019-Nov-07 07:30N 32°12' W 120°09'1 0.3
2019-Nov-07 03:30N 32°13' W 120°09'0 0.7
2019-Nov-07 02:59N 32°13' W 120°08'1 1.4
2019-Nov-07 02:26N 32°12' W 120°08'2 0.4
2019-Nov-06 21:00N 32°13' W 120°10'0 0.0
2019-Nov-06 15:30N 32°13' W 120°10'1 1.9
2019-Nov-06 15:00N 32°12' W 120°10'1 1.1
2019-Nov-06 14:30N 32°12' W 120°09'0 0.3
2019-Nov-06 14:00N 32°12' W 120°09'0 0.2
2019-Nov-06 13:30N 32°12' W 120°09'1 0.2
2019-Nov-06 08:25N 32°12' W 120°10'1 0.3
2019-Nov-06 06:30N 32°12' W 120°09'2 1.3
2019-Nov-06 05:01N 32°10' W 120°08'1 0.8
2019-Nov-06 04:00N 32°11' W 120°09'1 0.3
2019-Nov-06 01:55N 32°12' W 120°09'3 0.8
2019-Nov-05 22:30N 32°13' W 120°12'1 0.2
2019-Nov-05 18:30N 32°13' W 120°10'1 2.0
2019-Nov-05 17:54N 32°14' W 120°12'0 1.2
2019-Nov-05 17:30N 32°13' W 120°12'3 1.4
2019-Nov-05 15:00N 32°11' W 120°09'1 0.3
2019-Nov-05 12:55N 32°12' W 120°09'0 0.0
2019-Nov-05 11:26N 32°12' W 120°09'0 0.1
2019-Nov-05 11:00N 32°12' W 120°09'0 0.0
2019-Nov-05 08:26N 32°12' W 120°09'0 0.0
2019-Nov-05 06:00N 32°12' W 120°09'0 0.0
2019-Nov-05 03:30N 32°12' W 120°09'0 0.1
2019-Nov-05 00:30N 32°12' W 120°09'0 0.0
2019-Nov-05 00:00N 32°12' W 120°09'0 0.3
2019-Nov-04 23:00N 32°12' W 120°10'0 0.1
2019-Nov-04 19:30N 32°12' W 120°10'1 0.1
2019-Nov-04 10:00N 32°11' W 120°10'1 0.3
2019-Nov-04 05:26N 32°11' W 120°08'0 0.3
2019-Nov-04 04:53N 32°11' W 120°08'1 0.7
2019-Nov-04 02:57N 32°12' W 120°09'1 0.4
2019-Nov-04 00:54N 32°13' W 120°10'1 1.1
2019-Nov-03 23:58N 32°12' W 120°09'1 0.6
2019-Nov-03 21:20N 32°11' W 120°09'1 1.7
2019-Nov-03 21:00N 32°11' W 120°09'0 0.1
2019-Nov-03 17:00N 32°11' W 120°09'2 1.1
2019-Nov-03 15:00N 32°11' W 120°07'1 0.6
2019-Nov-03 14:12N 32°11' W 120°07'1 0.8
2019-Nov-03 13:30N 32°11' W 120°08'2 0.5
2019-Nov-03 10:00N 32°12' W 120°10'0 0.1
2019-Nov-03 07:41N 32°12' W 120°10'0 0.3
2019-Nov-03 06:30N 32°12' W 120°10'1 1.7
2019-Nov-03 05:48N 32°11' W 120°09'1 0.2
2019-Nov-03 01:29N 32°12' W 120°08'1 0.2
2019-Nov-02 22:00N 32°12' W 120°09'  

Dump ship's entire track history